createdAt,value
2023-06-23T00:01:00.982Z,8.98
2023-06-23T00:03:47.049Z,8.10
2023-06-23T00:06:33.110Z,8.60
2023-06-23T00:09:19.186Z,7.43
2023-06-23T00:12:08.946Z,7.18
2023-06-23T00:14:54.748Z,7.75
2023-06-23T00:17:42.308Z,7.65
2023-06-23T00:20:28.173Z,9.55
2023-06-23T00:23:14.873Z,7.70
2023-06-23T00:26:03.138Z,6.95
2023-06-23T00:28:50.586Z,7.50
2023-06-23T00:31:36.586Z,7.32
2023-06-23T00:34:22.450Z,8.50
2023-06-23T00:37:10.650Z,6.32
2023-06-23T00:39:56.805Z,8.13
2023-06-23T00:42:46.702Z,7.20
2023-06-23T00:45:33.950Z,8.55
2023-06-23T00:48:19.956Z,8.45
2023-06-23T00:51:05.815Z,9.10
2023-06-23T00:53:54.100Z,25.83
2023-06-23T00:56:40.468Z,11.57
2023-06-23T00:59:31.023Z,14.63
2023-06-23T01:02:17.150Z,15.98
2023-06-23T01:05:02.938Z,10.00
2023-06-23T01:07:58.866Z,9.65
2023-06-23T01:10:53.455Z,11.77
2023-06-23T01:13:48.721Z,8.20
2023-06-23T01:16:38.959Z,7.40
2023-06-23T01:19:44.508Z,7.28
2023-06-23T01:22:40.700Z,8.48
2023-06-23T01:25:34.842Z,6.38
2023-06-23T01:28:40.167Z,9.15
2023-06-23T01:31:32.747Z,7.13
2023-06-23T01:34:24.720Z,7.32
2023-06-23T01:37:13.058Z,6.43
2023-06-23T01:40:00.711Z,6.13
2023-06-23T01:42:51.925Z,6.55
2023-06-23T01:45:40.698Z,7.75
2023-06-23T01:48:27.806Z,8.30
2023-06-23T01:51:13.810Z,6.30
2023-06-23T01:54:00.775Z,11.50
2023-06-23T01:56:47.404Z,7.40
2023-06-23T01:59:34.519Z,8.90
2023-06-23T02:02:21.290Z,9.77
2023-06-23T02:05:07.811Z,9.93
2023-06-23T02:07:54.225Z,12.30
2023-06-23T02:10:40.532Z,11.73
2023-06-23T02:13:27.204Z,12.57
2023-06-23T02:16:14.562Z,13.15
2023-06-23T02:19:00.769Z,12.38
2023-06-23T02:21:48.907Z,14.48
2023-06-23T02:24:38.419Z,13.38
2023-06-23T02:27:24.677Z,13.10
2023-06-23T02:30:11.284Z,13.00
2023-06-23T02:32:57.642Z,12.13
2023-06-23T02:35:44.017Z,11.73
2023-06-23T02:38:30.485Z,11.00
2023-06-23T02:41:17.976Z,9.15
2023-06-23T02:44:13.418Z,8.38
2023-06-23T02:47:01.072Z,7.10
2023-06-23T02:49:47.064Z,6.78
2023-06-23T02:52:35.946Z,5.95
2023-06-23T02:55:23.397Z,5.55
2023-06-23T02:58:11.011Z,4.55
2023-06-23T03:00:58.899Z,5.15
2023-06-23T03:03:47.384Z,4.38
2023-06-23T03:06:37.389Z,4.32
2023-06-23T03:09:23.743Z,4.25
2023-06-23T03:12:10.077Z,3.30
2023-06-23T03:14:55.955Z,3.55
2023-06-23T03:17:42.296Z,3.30
2023-06-23T03:20:32.636Z,3.08
2023-06-23T03:23:19.270Z,3.33
2023-06-23T03:26:07.589Z,2.90
2023-06-23T03:28:55.320Z,3.40
2023-06-23T03:31:44.507Z,3.85
2023-06-23T03:34:36.174Z,4.18
2023-06-23T03:37:22.886Z,4.00
2023-06-23T03:40:13.124Z,4.32
2023-06-23T03:43:04.247Z,4.50
2023-06-23T03:45:53.603Z,3.50
2023-06-23T03:48:41.041Z,3.38
2023-06-23T03:51:28.587Z,2.67
2023-06-23T03:54:16.059Z,3.08
2023-06-23T03:57:03.985Z,2.08
2023-06-23T03:59:51.265Z,2.40
2023-06-23T04:02:37.815Z,1.45
2023-06-23T04:05:24.364Z,1.70
2023-06-23T04:08:10.944Z,1.27
2023-06-23T04:10:58.124Z,1.05
2023-06-23T04:13:44.142Z,1.17
2023-06-23T04:16:30.732Z,1.50
2023-06-23T04:19:17.303Z,1.30
2023-06-23T04:22:04.604Z,3.28
2023-06-23T04:24:51.645Z,0.80
2023-06-23T04:27:38.373Z,0.93
2023-06-23T04:30:24.801Z,1.17
2023-06-23T04:33:10.775Z,1.88
2023-06-23T04:35:59.807Z,1.15
2023-06-23T04:39:01.038Z,0.70
2023-06-23T04:41:49.581Z,0.80
2023-06-23T04:44:38.387Z,1.02
2023-06-23T04:47:27.587Z,1.20
2023-06-23T04:50:14.850Z,1.45
2023-06-23T04:53:03.615Z,14.40
2023-06-23T04:55:51.212Z,2.65
2023-06-23T04:58:38.685Z,3.78
2023-06-23T05:01:24.884Z,5.10
2023-06-23T05:04:12.020Z,2.88
2023-06-23T05:06:58.349Z,5.00
2023-06-23T05:09:46.949Z,7.22
2023-06-23T05:12:33.964Z,11.13
2023-06-23T05:15:21.103Z,6.43
2023-06-23T05:18:08.069Z,6.03
2023-06-23T05:20:55.048Z,8.38
2023-06-23T05:23:52.938Z,4.25
2023-06-23T05:26:40.118Z,8.90
2023-06-23T05:29:26.810Z,4.43
2023-06-23T05:32:15.518Z,4.28
2023-06-23T05:35:03.250Z,4.70
2023-06-23T05:37:49.721Z,6.07
2023-06-23T05:40:35.771Z,4.93
2023-06-23T05:43:21.621Z,4.68
2023-06-23T05:46:09.713Z,4.63
2023-06-23T05:48:59.741Z,4.80
2023-06-23T05:51:46.484Z,5.25
2023-06-23T05:54:33.865Z,5.20
2023-06-23T05:57:24.324Z,5.50
2023-06-23T06:00:11.920Z,5.35
2023-06-23T06:02:59.463Z,5.32
2023-06-23T06:05:47.958Z,5.40
2023-06-23T06:08:34.000Z,5.10
2023-06-23T06:11:20.706Z,4.70
2023-06-23T06:14:09.263Z,4.63
2023-06-23T06:16:55.565Z,5.85
2023-06-23T06:19:42.331Z,6.32
2023-06-23T06:22:28.998Z,5.25
2023-06-23T06:25:15.587Z,5.53
2023-06-23T06:28:04.437Z,5.18
2023-06-23T06:30:53.714Z,5.32
2023-06-23T06:33:42.839Z,5.45
2023-06-23T06:36:29.811Z,5.10
2023-06-23T06:39:15.958Z,5.70
2023-06-23T06:42:01.971Z,5.53
2023-06-23T06:44:47.720Z,5.70
2023-06-23T06:47:34.538Z,4.63
2023-06-23T06:50:21.198Z,4.85
2023-06-23T06:53:08.110Z,5.88
2023-06-23T06:55:54.442Z,5.43
2023-06-23T06:58:41.000Z,5.20
2023-06-23T07:01:27.699Z,5.32
2023-06-23T07:04:14.169Z,6.13
2023-06-23T07:06:59.957Z,6.07
2023-06-23T07:09:45.867Z,5.90
2023-06-23T07:12:34.821Z,8.07
2023-06-23T07:15:20.604Z,5.63
2023-06-23T07:18:06.528Z,5.68
2023-06-23T07:20:52.462Z,5.80
2023-06-23T07:23:39.455Z,5.53
2023-06-23T07:26:25.235Z,5.55
2023-06-23T07:29:12.271Z,5.38
2023-06-23T07:31:58.761Z,5.03
2023-06-23T07:34:44.649Z,5.60
2023-06-23T07:37:31.401Z,5.95
2023-06-23T07:40:17.493Z,5.57
2023-06-23T07:43:04.155Z,6.05
2023-06-23T07:45:50.331Z,7.97
2023-06-23T07:48:36.559Z,6.80
2023-06-23T07:51:22.506Z,7.93
2023-06-23T07:54:08.467Z,6.45
2023-06-23T07:56:54.471Z,6.55
2023-06-23T07:59:40.363Z,6.57
2023-06-23T08:02:26.095Z,8.13
2023-06-23T08:05:12.403Z,9.35
2023-06-23T08:07:58.355Z,5.72
2023-06-23T08:10:45.180Z,8.32
2023-06-23T08:13:31.506Z,6.80
2023-06-23T08:16:17.327Z,6.85
2023-06-23T08:19:03.486Z,10.90
2023-06-23T08:21:50.280Z,6.80
2023-06-23T08:24:36.364Z,6.95
2023-06-23T08:27:22.114Z,7.10
2023-06-23T08:30:08.313Z,6.47
2023-06-23T08:32:53.985Z,6.25
2023-06-23T08:35:40.691Z,7.72
2023-06-23T08:38:27.084Z,6.88
2023-06-23T08:41:13.512Z,8.18
2023-06-23T08:44:01.387Z,9.20
2023-06-23T08:47:04.807Z,7.97
2023-06-23T08:49:51.689Z,8.10
2023-06-23T08:52:37.968Z,5.80
2023-06-23T08:55:24.337Z,7.03
2023-06-23T08:58:10.981Z,7.68
2023-06-23T09:00:56.887Z,7.03
2023-06-23T09:03:42.848Z,7.05
2023-06-23T09:06:28.534Z,7.57
2023-06-23T09:09:14.364Z,9.77
2023-06-23T09:12:00.786Z,9.32
2023-06-23T09:14:47.512Z,6.97
2023-06-23T09:17:33.994Z,7.70
2023-06-23T09:20:19.817Z,11.05
2023-06-23T09:23:05.666Z,7.75
2023-06-23T09:25:52.774Z,9.40
2023-06-23T09:28:38.678Z,7.15
2023-06-23T09:31:25.163Z,8.18
2023-06-23T09:34:11.178Z,7.13
2023-06-23T09:37:07.922Z,6.53
2023-06-23T09:39:56.731Z,6.38
2023-06-23T09:42:46.703Z,9.07
2023-06-23T09:45:34.899Z,7.30
2023-06-23T09:48:21.193Z,8.93
2023-06-23T09:51:08.048Z,7.70
2023-06-23T09:53:54.748Z,6.93
2023-06-23T09:56:41.050Z,7.07
2023-06-23T09:59:26.964Z,7.43
2023-06-23T10:02:42.310Z,7.22
2023-06-23T10:05:35.844Z,7.93
2023-06-23T10:08:21.821Z,7.82
2023-06-23T10:11:08.522Z,7.60
2023-06-23T10:13:54.028Z,7.43
2023-06-23T10:16:42.268Z,7.43
2023-06-23T10:19:28.048Z,7.80
2023-06-23T10:22:15.744Z,10.55
2023-06-23T10:25:01.964Z,9.05
2023-06-23T10:27:48.076Z,9.43
2023-06-23T10:30:33.755Z,10.27
2023-06-23T10:33:20.837Z,12.52
2023-06-23T10:36:08.864Z,10.68
2023-06-23T10:38:56.594Z,10.43
2023-06-23T10:41:47.111Z,11.68
2023-06-23T10:44:33.293Z,10.77
2023-06-23T10:47:19.173Z,11.77
2023-06-23T10:50:05.763Z,12.43
2023-06-23T10:52:51.985Z,11.68
2023-06-23T10:55:57.972Z,11.77
2023-06-23T10:58:51.894Z,14.15
2023-06-23T11:01:58.706Z,13.93
2023-06-23T11:04:52.289Z,14.85
2023-06-23T11:07:58.271Z,16.30
2023-06-23T11:10:57.954Z,17.42
2023-06-23T11:13:47.140Z,17.35
2023-06-23T11:16:39.903Z,17.00
2023-06-23T11:19:29.441Z,18.50
2023-06-23T11:22:21.795Z,18.05
2023-06-23T11:25:08.009Z,19.02
2023-06-23T11:28:12.879Z,18.30
2023-06-23T11:31:19.084Z,18.27
2023-06-23T11:34:05.186Z,18.42
2023-06-23T11:36:51.250Z,19.10
2023-06-23T11:39:37.219Z,19.27
2023-06-23T11:42:24.538Z,19.90
2023-06-23T11:45:10.738Z,19.25
2023-06-23T11:47:56.819Z,19.67
2023-06-23T11:50:43.693Z,18.92
2023-06-23T11:53:29.739Z,19.52
2023-06-23T11:56:16.659Z,19.90
2023-06-23T11:59:05.536Z,19.48
2023-06-23T12:01:52.298Z,18.33
2023-06-23T12:04:38.443Z,19.52
2023-06-23T12:07:29.831Z,18.45
2023-06-23T12:10:17.302Z,20.13
2023-06-23T12:13:03.828Z,18.02
2023-06-23T12:15:50.461Z,17.70
2023-06-23T12:18:46.708Z,18.90
2023-06-23T12:21:33.766Z,18.48
2023-06-23T12:24:21.144Z,19.70
2023-06-23T12:27:07.314Z,17.17
2023-06-23T12:29:53.354Z,18.48
2023-06-23T12:32:41.045Z,16.13
2023-06-23T12:35:31.267Z,16.90
2023-06-23T12:38:19.545Z,14.90
2023-06-23T12:41:18.916Z,16.20
2023-06-23T12:44:05.128Z,16.23
2023-06-23T12:46:51.330Z,14.63
2023-06-23T12:49:39.119Z,13.00
2023-06-23T12:52:25.267Z,12.93
2023-06-23T12:55:11.231Z,13.20
2023-06-23T12:57:57.132Z,11.75
2023-06-23T13:00:44.275Z,10.15
2023-06-23T13:03:30.583Z,11.85
2023-06-23T13:06:17.009Z,12.23
2023-06-23T13:09:04.182Z,9.85
2023-06-23T13:11:50.158Z,10.43
2023-06-23T13:14:36.130Z,10.73
2023-06-23T13:17:22.267Z,11.15
2023-06-23T13:20:08.810Z,11.75
2023-06-23T13:22:54.767Z,11.77
2023-06-23T13:25:40.652Z,13.63
2023-06-23T13:28:26.676Z,10.57
2023-06-23T13:31:12.685Z,11.68
2023-06-23T13:33:58.537Z,10.27
2023-06-23T13:36:44.508Z,11.63
2023-06-23T13:39:30.661Z,10.60
2023-06-23T13:42:16.650Z,10.40
2023-06-23T13:45:02.572Z,12.45
2023-06-23T13:47:48.457Z,11.52
2023-06-23T13:50:34.476Z,18.00
2023-06-23T13:53:20.600Z,12.15
2023-06-23T13:56:06.936Z,9.98
2023-06-23T13:58:52.820Z,15.18
2023-06-23T14:01:38.829Z,24.20
2023-06-23T14:04:24.850Z,12.93
2023-06-23T14:07:10.788Z,11.00
2023-06-23T14:09:56.782Z,17.60
2023-06-23T14:12:42.588Z,16.65
2023-06-23T14:15:28.814Z,16.90
2023-06-23T14:18:15.060Z,15.57
2023-06-23T14:21:01.377Z,11.98
2023-06-23T14:23:47.281Z,13.25
2023-06-23T14:26:32.977Z,10.55
2023-06-23T14:29:19.068Z,9.35
2023-06-23T14:32:05.117Z,9.27
2023-06-23T14:34:51.171Z,10.40
2023-06-23T14:37:37.234Z,10.00
2023-06-23T14:40:23.353Z,7.85
2023-06-23T14:43:09.535Z,10.10
2023-06-23T14:45:55.437Z,7.78
2023-06-23T14:48:41.193Z,8.00
2023-06-23T14:51:27.564Z,8.32
2023-06-23T14:54:13.668Z,6.70
2023-06-23T14:56:59.456Z,8.30
2023-06-23T14:59:45.097Z,7.88
2023-06-23T15:02:31.549Z,6.45
2023-06-23T15:05:17.538Z,6.20
2023-06-23T15:08:03.481Z,6.60
2023-06-23T15:10:54.366Z,6.32
2023-06-23T15:13:40.233Z,7.20
2023-06-23T15:16:26.087Z,6.32
2023-06-23T15:19:12.097Z,6.80
2023-06-23T15:21:58.310Z,6.20
2023-06-23T15:24:44.254Z,6.47
2023-06-23T15:27:30.110Z,7.40
2023-06-23T15:30:16.069Z,5.82
2023-06-23T15:33:02.038Z,5.32
2023-06-23T15:35:47.963Z,6.43
2023-06-23T15:38:34.045Z,6.28
2023-06-23T15:41:19.753Z,4.72
2023-06-23T15:44:05.454Z,4.90
2023-06-23T15:46:52.713Z,6.32
2023-06-23T15:49:38.870Z,5.68
2023-06-23T15:52:25.030Z,4.95
2023-06-23T15:55:11.738Z,6.88
2023-06-23T15:57:57.814Z,7.97
2023-06-23T16:00:44.222Z,4.63
2023-06-23T16:03:30.218Z,5.25
2023-06-23T16:06:16.158Z,4.78
2023-06-23T16:09:02.043Z,4.32
2023-06-23T16:11:47.782Z,4.90
2023-06-23T16:14:33.482Z,4.55
2023-06-23T16:17:19.546Z,4.85
2023-06-23T16:20:06.654Z,4.68
2023-06-23T16:22:52.656Z,3.75
2023-06-23T16:25:38.532Z,5.25
2023-06-23T16:28:24.317Z,4.00
2023-06-23T16:31:10.448Z,4.43
2023-06-23T16:33:58.492Z,6.38
2023-06-23T16:36:45.323Z,3.85
2023-06-23T16:39:31.475Z,3.75
2023-06-23T16:42:18.252Z,4.05
2023-06-23T16:45:04.471Z,4.78
2023-06-23T16:47:50.557Z,4.20
2023-06-23T16:50:38.063Z,4.18
2023-06-23T16:53:24.074Z,5.20
2023-06-23T16:56:10.890Z,4.38
2023-06-23T16:58:57.106Z,4.30
2023-06-23T17:01:42.820Z,4.30
2023-06-23T17:04:28.840Z,4.50
2023-06-23T17:07:14.796Z,4.78
2023-06-23T17:10:00.570Z,3.80
2023-06-23T17:12:46.384Z,4.57
2023-06-23T17:15:32.681Z,4.35
2023-06-23T17:18:18.897Z,4.15
2023-06-23T17:21:04.754Z,4.70
2023-06-23T17:23:50.512Z,4.40
2023-06-23T17:26:36.363Z,4.45
2023-06-23T17:29:22.543Z,4.00
2023-06-23T17:32:09.482Z,3.92
2023-06-23T17:34:55.772Z,5.78
2023-06-23T17:37:41.495Z,4.22
2023-06-23T17:40:27.261Z,4.45
2023-06-23T17:43:13.180Z,4.45
2023-06-23T17:45:59.079Z,4.15
2023-06-23T17:48:45.516Z,5.45
2023-06-23T17:51:31.331Z,4.35
2023-06-23T17:54:17.059Z,4.13
2023-06-23T17:57:03.070Z,3.78
2023-06-23T17:59:48.775Z,4.95
2023-06-23T18:02:35.201Z,4.63
2023-06-23T18:05:21.826Z,5.70
2023-06-23T18:08:07.947Z,3.92
2023-06-23T18:10:54.040Z,4.10
2023-06-23T18:13:42.244Z,4.40
2023-06-23T18:16:28.706Z,4.63
2023-06-23T18:19:16.350Z,4.78
2023-06-23T18:22:03.573Z,4.75
2023-06-23T18:24:49.507Z,4.47
2023-06-23T18:27:35.702Z,4.88
2023-06-23T18:30:21.898Z,7.32
2023-06-23T18:33:07.701Z,5.15
2023-06-23T18:35:53.576Z,4.50
2023-06-23T18:38:39.405Z,4.88
2023-06-23T18:41:25.746Z,4.18
2023-06-23T18:44:11.778Z,5.55
2023-06-23T18:46:58.274Z,4.95
2023-06-23T18:49:44.554Z,4.88
2023-06-23T18:52:30.508Z,5.32
2023-06-23T18:55:17.301Z,5.13
2023-06-23T18:58:04.777Z,4.88
2023-06-23T19:00:50.778Z,4.97
2023-06-23T19:03:36.725Z,5.35
2023-06-23T19:06:22.703Z,5.07
2023-06-23T19:09:08.836Z,7.07
2023-06-23T19:11:55.421Z,5.80
2023-06-23T19:14:41.369Z,4.70
2023-06-23T19:17:27.232Z,4.45
2023-06-23T19:20:13.192Z,5.05
2023-06-23T19:22:59.405Z,5.03
2023-06-23T19:25:45.232Z,5.00
2023-06-23T19:28:31.095Z,4.63
2023-06-23T19:31:17.086Z,4.57
2023-06-23T19:34:03.109Z,7.15
2023-06-23T19:36:49.334Z,5.88
2023-06-23T19:39:36.961Z,6.22
2023-06-23T19:42:30.832Z,8.40
2023-06-23T19:45:17.221Z,17.83
2023-06-23T19:48:04.826Z,20.77
2023-06-23T19:50:51.036Z,11.77
2023-06-23T19:53:36.826Z,4.38
2023-06-23T19:56:23.186Z,5.25
2023-06-23T19:59:09.124Z,4.95
2023-06-23T20:01:54.905Z,7.97
2023-06-23T20:04:40.875Z,4.45
2023-06-23T20:07:26.762Z,6.30
2023-06-23T20:10:13.188Z,7.93
2023-06-23T20:12:59.286Z,5.97
2023-06-23T20:15:45.387Z,4.65
2023-06-23T20:18:31.974Z,4.38
2023-06-23T20:21:18.334Z,5.70
2023-06-23T20:24:04.158Z,5.03
2023-06-23T20:26:49.952Z,7.15
2023-06-23T20:29:35.742Z,5.90
2023-06-23T20:32:24.001Z,6.05
2023-06-23T20:35:10.223Z,7.28
2023-06-23T20:37:56.218Z,4.93
2023-06-23T20:40:42.457Z,7.28
2023-06-23T20:43:28.407Z,6.85
2023-06-23T20:46:14.678Z,6.20
2023-06-23T20:49:00.723Z,8.23
2023-06-23T20:51:46.934Z,4.93
2023-06-23T20:54:33.081Z,5.50
2023-06-23T20:57:19.686Z,7.20
2023-06-23T21:00:05.631Z,5.63
2023-06-23T21:02:51.688Z,7.60
2023-06-23T21:05:37.817Z,6.10
2023-06-23T21:08:23.827Z,5.20
2023-06-23T21:11:09.594Z,5.63
2023-06-23T21:13:55.451Z,5.55
2023-06-23T21:16:41.354Z,7.35
2023-06-23T21:19:27.422Z,6.25
2023-06-23T21:22:13.670Z,4.57
2023-06-23T21:24:59.554Z,6.07
2023-06-23T21:27:46.266Z,7.10
2023-06-23T21:30:33.031Z,6.53
2023-06-23T21:33:19.139Z,6.38
2023-06-23T21:36:04.982Z,8.25
2023-06-23T21:38:50.767Z,6.97
2023-06-23T21:41:36.737Z,5.32
2023-06-23T21:44:22.609Z,7.68
2023-06-23T21:47:08.528Z,11.95
2023-06-23T21:49:54.467Z,6.97
2023-06-23T21:52:40.379Z,5.85
2023-06-23T21:55:27.093Z,9.98
2023-06-23T21:58:13.444Z,6.00
2023-06-23T22:00:59.758Z,5.80
2023-06-23T22:03:45.727Z,7.15
2023-06-23T22:06:31.902Z,8.38
2023-06-23T22:09:18.031Z,8.98
2023-06-23T22:12:04.542Z,6.28
2023-06-23T22:14:50.756Z,6.00
2023-06-23T22:17:36.541Z,7.93
2023-06-23T22:20:22.980Z,4.80
2023-06-23T22:23:08.759Z,7.50
2023-06-23T22:25:55.026Z,7.15
2023-06-23T22:28:41.180Z,7.20
2023-06-23T22:31:26.885Z,4.80
2023-06-23T22:34:13.207Z,5.15
2023-06-23T22:37:00.638Z,5.90
2023-06-23T22:39:46.417Z,5.45
2023-06-23T22:42:32.862Z,6.47
2023-06-23T22:45:18.795Z,6.10
2023-06-23T22:48:04.525Z,4.25
2023-06-23T22:50:50.602Z,4.70
2023-06-23T22:53:36.439Z,4.60
2023-06-23T22:56:22.575Z,5.47
2023-06-23T22:59:08.854Z,6.90
2023-06-23T23:01:55.064Z,8.45
2023-06-23T23:04:41.559Z,7.32
2023-06-23T23:07:29.024Z,8.25
2023-06-23T23:10:15.205Z,7.82
2023-06-23T23:13:01.235Z,7.65
2023-06-23T23:15:47.066Z,7.18
2023-06-23T23:18:34.802Z,7.20
2023-06-23T23:21:23.011Z,7.05
2023-06-23T23:24:19.633Z,5.20
2023-06-23T23:27:05.862Z,7.00
2023-06-23T23:29:54.809Z,8.60
2023-06-23T23:32:42.854Z,6.72
2023-06-23T23:35:28.943Z,7.55
2023-06-23T23:38:15.483Z,6.13
2023-06-23T23:41:01.894Z,5.95
2023-06-23T23:43:47.957Z,9.13
2023-06-23T23:46:33.951Z,6.68
2023-06-23T23:49:21.356Z,7.82
2023-06-23T23:52:07.446Z,8.52
2023-06-23T23:54:54.193Z,7.40
2023-06-23T23:57:40.148Z,7.90
